sensor_id;sensor_type;location;lat;lon;timestamp;pressure;altitude;pressure_sealevel;temperature;humidity
75089;BME280;63673;49.928;8.150;2023-03-08T00:00:08;976.15;;;1.91;100
75089;BME280;63673;49.928;8.150;2023-03-08T00:01:09;976.11;;;1.9;100
75089;BME280;63673;49.928;8.150;2023-03-08T00:02:10;976.15;;;1.9;100
75089;BME280;63673;49.928;8.150;2023-03-08T00:03:12;976.14;;;1.91;100
75089;BME280;63673;49.928;8.150;2023-03-08T00:04:14;976.19;;;1.91;100
75089;BME280;63673;49.928;8.150;2023-03-08T00:05:16;976.18;;;1.9;100
75089;BME280;63673;49.928;8.150;2023-03-08T00:06:17;976.13;;;1.9;100
75089;BME280;63673;49.928;8.150;2023-03-08T00:07:19;976.11;;;1.89;100
75089;BME280;63673;49.928;8.150;2023-03-08T00:08:21;976.1;;;1.9;100
75089;BME280;63673;49.928;8.150;2023-03-08T00:09:23;976.15;;;1.89;100
75089;BME280;63673;49.928;8.150;2023-03-08T00:10:24;976.12;;;1.89;100
75089;BME280;63673;49.928;8.150;2023-03-08T00:11:26;976.08;;;1.88;100
75089;BME280;63673;49.928;8.150;2023-03-08T00:12:28;976.12;;;1.88;100
75089;BME280;63673;49.928;8.150;2023-03-08T00:13:30;976.01;;;1.88;100
75089;BME280;63673;49.928;8.150;2023-03-08T00:14:31;976.05;;;1.88;100
75089;BME280;63673;49.928;8.150;2023-03-08T00:15:34;976.04;;;1.88;100
75089;BME280;63673;49.928;8.150;2023-03-08T00:16:35;976.06;;;1.87;100
75089;BME280;63673;49.928;8.150;2023-03-08T00:17:37;976.09;;;1.87;100
75089;BME280;63673;49.928;8.150;2023-03-08T00:18:38;976.15;;;1.87;100
75089;BME280;63673;49.928;8.150;2023-03-08T00:19:40;976.09;;;1.87;100
75089;BME280;63673;49.928;8.150;2023-03-08T00:20:42;976.14;;;1.87;100
75089;BME280;63673;49.928;8.150;2023-03-08T00:21:43;976.12;;;1.86;100
75089;BME280;63673;49.928;8.150;2023-03-08T00:22:45;976.09;;;1.86;100
75089;BME280;63673;49.928;8.150;2023-03-08T00:23:47;976.11;;;1.86;100
75089;BME280;63673;49.928;8.150;2023-03-08T00:24:49;976.06;;;1.86;100
75089;BME280;63673;49.928;8.150;2023-03-08T00:25:50;976.06;;;1.85;100
75089;BME280;63673;49.928;8.150;2023-03-08T00:26:52;976.08;;;1.85;100
75089;BME280;63673;49.928;8.150;2023-03-08T00:27:54;976.05;;;1.84;100
75089;BME280;63673;49.928;8.150;2023-03-08T00:28:56;976.07;;;1.84;100
75089;BME280;63673;49.928;8.150;2023-03-08T00:29:57;976.08;;;1.83;100
75089;BME280;63673;49.928;8.150;2023-03-08T00:31:00;976.12;;;1.84;100
75089;BME280;63673;49.928;8.150;2023-03-08T00:32:01;976.14;;;1.82;100
75089;BME280;63673;49.928;8.150;2023-03-08T00:33:02;976.07;;;1.82;100
75089;BME280;63673;49.928;8.150;2023-03-08T00:34:04;975.99;;;1.82;100
75089;BME280;63673;49.928;8.150;2023-03-08T00:35:06;976.08;;;1.81;100
75089;BME280;63673;49.928;8.150;2023-03-08T00:36:09;976.03;;;1.81;100
75089;BME280;63673;49.928;8.150;2023-03-08T00:37:09;976.01;;;1.81;100
75089;BME280;63673;49.928;8.150;2023-03-08T00:38:11;976.03;;;1.8;100
75089;BME280;63673;49.928;8.150;2023-03-08T00:39:13;975.98;;;1.81;100
75089;BME280;63673;49.928;8.150;2023-03-08T00:40:15;976.01;;;1.81;100
75089;BME280;63673;49.928;8.150;2023-03-08T00:41:17;976.03;;;1.81;100
75089;BME280;63673;49.928;8.150;2023-03-08T00:42:18;975.99;;;1.81;100
75089;BME280;63673;49.928;8.150;2023-03-08T00:43:20;976.02;;;1.81;100
75089;BME280;63673;49.928;8.150;2023-03-08T00:44:22;975.97;;;1.81;100
75089;BME280;63673;49.928;8.150;2023-03-08T00:45:23;975.98;;;1.81;100
75089;BME280;63673;49.928;8.150;2023-03-08T00:46:25;975.99;;;1.82;100
75089;BME280;63673;49.928;8.150;2023-03-08T00:47:27;975.99;;;1.81;100
75089;BME280;63673;49.928;8.150;2023-03-08T00:48:29;975.93;;;1.81;100
75089;BME280;63673;49.928;8.150;2023-03-08T00:49:30;975.95;;;1.81;100
75089;BME280;63673;49.928;8.150;2023-03-08T00:50:32;975.9;;;1.8;100
75089;BME280;63673;49.928;8.150;2023-03-08T00:51:34;975.94;;;1.81;100
75089;BME280;63673;49.928;8.150;2023-03-08T00:52:35;975.97;;;1.81;100
75089;BME280;63673;49.928;8.150;2023-03-08T00:53:37;975.99;;;1.8;100
75089;BME280;63673;49.928;8.150;2023-03-08T00:54:39;976.01;;;1.8;100
75089;BME280;63673;49.928;8.150;2023-03-08T00:55:46;975.97;;;1.8;100
75089;BME280;63673;49.928;8.150;2023-03-08T00:56:42;975.95;;;1.81;100
75089;BME280;63673;49.928;8.150;2023-03-08T00:57:44;975.97;;;1.8;100
75089;BME280;63673;49.928;8.150;2023-03-08T00:58:46;975.99;;;1.79;100
75089;BME280;63673;49.928;8.150;2023-03-08T00:59:48;975.98;;;1.79;100
75089;BME280;63673;49.928;8.150;2023-03-08T01:00:49;976.02;;;1.79;100
75089;BME280;63673;49.928;8.150;2023-03-08T01:01:51;976.01;;;1.79;100
75089;BME280;63673;49.928;8.150;2023-03-08T01:02:53;976.01;;;1.79;100
75089;BME280;63673;49.928;8.150;2023-03-08T01:03:54;976.02;;;1.79;100
75089;BME280;63673;49.928;8.150;2023-03-08T01:04:56;976.01;;;1.78;100
75089;BME280;63673;49.928;8.150;2023-03-08T01:06:00;975.97;;;1.78;100
75089;BME280;63673;49.928;8.150;2023-03-08T01:07:00;976;;;1.78;100
75089;BME280;63673;49.928;8.150;2023-03-08T01:08:01;975.96;;;1.78;100
75089;BME280;63673;49.928;8.150;2023-03-08T01:09:03;975.94;;;1.78;100
75089;BME280;63673;49.928;8.150;2023-03-08T01:10:05;975.94;;;1.79;100
75089;BME280;63673;49.928;8.150;2023-03-08T01:11:11;975.96;;;1.78;100
75089;BME280;63673;49.928;8.150;2023-03-08T01:12:08;975.89;;;1.78;100
75089;BME280;63673;49.928;8.150;2023-03-08T01:13:10;975.88;;;1.77;100
75089;BME280;63673;49.928;8.150;2023-03-08T01:14:12;975.9;;;1.78;100
75089;BME280;63673;49.928;8.150;2023-03-08T01:15:14;975.9;;;1.78;100
75089;BME280;63673;49.928;8.150;2023-03-08T01:16:17;975.87;;;1.78;100
75089;BME280;63673;49.928;8.150;2023-03-08T01:17:17;975.82;;;1.78;100
75089;BME280;63673;49.928;8.150;2023-03-08T01:18:19;975.81;;;1.77;100
75089;BME280;63673;49.928;8.150;2023-03-08T01:19:20;975.83;;;1.78;100
75089;BME280;63673;49.928;8.150;2023-03-08T01:20:22;975.74;;;1.78;100
75089;BME280;63673;49.928;8.150;2023-03-08T01:21:24;975.72;;;1.78;100
75089;BME280;63673;49.928;8.150;2023-03-08T01:22:26;975.72;;;1.79;100
75089;BME280;63673;49.928;8.150;2023-03-08T01:23:27;975.65;;;1.78;100
75089;BME280;63673;49.928;8.150;2023-03-08T01:24:29;975.65;;;1.81;100
75089;BME280;63673;49.928;8.150;2023-03-08T01:25:31;975.63;;;1.81;100
75089;BME280;63673;49.928;8.150;2023-03-08T01:26:33;975.62;;;1.81;100
75089;BME280;63673;49.928;8.150;2023-03-08T01:27:34;975.57;;;1.81;100
75089;BME280;63673;49.928;8.150;2023-03-08T01:28:36;975.56;;;1.82;100
75089;BME280;63673;49.928;8.150;2023-03-08T01:29:38;975.56;;;1.84;100
75089;BME280;63673;49.928;8.150;2023-03-08T01:30:40;975.52;;;1.83;100
75089;BME280;63673;49.928;8.150;2023-03-08T01:31:41;975.51;;;1.84;100
75089;BME280;63673;49.928;8.150;2023-03-08T01:32:43;975.46;;;1.85;100
75089;BME280;63673;49.928;8.150;2023-03-08T01:33:45;975.48;;;1.85;100
75089;BME280;63673;49.928;8.150;2023-03-08T01:34:46;975.41;;;1.85;100
75089;BME280;63673;49.928;8.150;2023-03-08T01:35:48;975.39;;;1.86;100
75089;BME280;63673;49.928;8.150;2023-03-08T01:36:50;975.38;;;1.86;100
75089;BME280;63673;49.928;8.150;2023-03-08T01:37:52;975.3;;;1.87;100
75089;BME280;63673;49.928;8.150;2023-03-08T01:38:53;975.37;;;1.87;100
75089;BME280;63673;49.928;8.150;2023-03-08T01:39:55;975.35;;;1.87;100
75089;BME280;63673;49.928;8.150;2023-03-08T01:40:57;975.37;;;1.88;100
75089;BME280;63673;49.928;8.150;2023-03-08T01:42:01;975.35;;;1.87;100
75089;BME280;63673;49.928;8.150;2023-03-08T01:43:09;975.38;;;1.87;100
75089;BME280;63673;49.928;8.150;2023-03-08T01:44:02;975.35;;;1.88;100
75089;BME280;63673;49.928;8.150;2023-03-08T01:45:04;975.36;;;1.88;100
75089;BME280;63673;49.928;8.150;2023-03-08T01:46:10;975.37;;;1.88;100
75089;BME280;63673;49.928;8.150;2023-03-08T01:47:08;975.34;;;1.88;100
75089;BME280;63673;49.928;8.150;2023-03-08T01:48:09;975.36;;;1.88;100
75089;BME280;63673;49.928;8.150;2023-03-08T01:49:12;975.35;;;1.88;100
75089;BME280;63673;49.928;8.150;2023-03-08T01:50:13;975.37;;;1.88;100
75089;BME280;63673;49.928;8.150;2023-03-08T01:51:15;975.39;;;1.87;100
75089;BME280;63673;49.928;8.150;2023-03-08T01:52:17;975.36;;;1.89;100
75089;BME280;63673;49.928;8.150;2023-03-08T01:53:18;975.39;;;1.87;100
75089;BME280;63673;49.928;8.150;2023-03-08T01:54:21;975.4;;;1.87;100
75089;BME280;63673;49.928;8.150;2023-03-08T01:55:21;975.36;;;1.89;100
75089;BME280;63673;49.928;8.150;2023-03-08T01:56:23;975.37;;;1.88;100
75089;BME280;63673;49.928;8.150;2023-03-08T01:57:26;975.35;;;1.88;100
75089;BME280;63673;49.928;8.150;2023-03-08T01:58:26;975.3;;;1.88;100
75089;BME280;63673;49.928;8.150;2023-03-08T01:59:28;975.31;;;1.88;100
75089;BME280;63673;49.928;8.150;2023-03-08T02:00:30;975.27;;;1.88;100
75089;BME280;63673;49.928;8.150;2023-03-08T02:01:32;975.29;;;1.89;100
75089;BME280;63673;49.928;8.150;2023-03-08T02:02:35;975.26;;;1.89;100
75089;BME280;63673;49.928;8.150;2023-03-08T02:03:35;975.26;;;1.89;100
75089;BME280;63673;49.928;8.150;2023-03-08T02:04:37;975.18;;;1.89;100
75089;BME280;63673;49.928;8.150;2023-03-08T02:05:39;975.24;;;1.9;100
75089;BME280;63673;49.928;8.150;2023-03-08T02:06:40;975.17;;;1.9;100
75089;BME280;63673;49.928;8.150;2023-03-08T02:07:42;975.21;;;1.89;100
75089;BME280;63673;49.928;8.150;2023-03-08T02:08:44;975.18;;;1.89;100
75089;BME280;63673;49.928;8.150;2023-03-08T02:09:46;975.18;;;1.89;100
75089;BME280;63673;49.928;8.150;2023-03-08T02:10:47;975.19;;;1.9;100
75089;BME280;63673;49.928;8.150;2023-03-08T02:11:49;975.13;;;1.89;100
75089;BME280;63673;49.928;8.150;2023-03-08T02:12:51;975.14;;;1.9;100
75089;BME280;63673;49.928;8.150;2023-03-08T02:13:52;975.08;;;1.9;100
75089;BME280;63673;49.928;8.150;2023-03-08T02:14:54;975.08;;;1.9;100
75089;BME280;63673;49.928;8.150;2023-03-08T02:15:56;975.03;;;1.9;100
75089;BME280;63673;49.928;8.150;2023-03-08T02:16:58;975;;;1.9;100
75089;BME280;63673;49.928;8.150;2023-03-08T02:17:59;975.02;;;1.91;100
75089;BME280;63673;49.928;8.150;2023-03-08T02:19:02;974.99;;;1.91;100
75089;BME280;63673;49.928;8.150;2023-03-08T02:20:05;974.92;;;1.9;100
75089;BME280;63673;49.928;8.150;2023-03-08T02:21:05;974.92;;;1.91;100
75089;BME280;63673;49.928;8.150;2023-03-08T02:22:07;974.94;;;1.91;100
75089;BME280;63673;49.928;8.150;2023-03-08T02:23:09;974.91;;;1.92;100
75089;BME280;63673;49.928;8.150;2023-03-08T02:24:16;974.84;;;1.92;100
75089;BME280;63673;49.928;8.150;2023-03-08T02:25:12;974.82;;;1.91;100
75089;BME280;63673;49.928;8.150;2023-03-08T02:26:13;974.84;;;1.92;100
75089;BME280;63673;49.928;8.150;2023-03-08T02:27:16;974.81;;;1.91;100
75089;BME280;63673;49.928;8.150;2023-03-08T02:28:17;974.78;;;1.92;100
75089;BME280;63673;49.928;8.150;2023-03-08T02:29:18;974.79;;;1.91;100
75089;BME280;63673;49.928;8.150;2023-03-08T02:30:22;974.81;;;1.92;100
75089;BME280;63673;49.928;8.150;2023-03-08T02:31:22;974.76;;;1.92;100
75089;BME280;63673;49.928;8.150;2023-03-08T02:32:24;974.81;;;1.91;100
75089;BME280;63673;49.928;8.150;2023-03-08T02:33:26;974.82;;;1.92;100
75089;BME280;63673;49.928;8.150;2023-03-08T02:34:27;974.82;;;1.92;100
75089;BME280;63673;49.928;8.150;2023-03-08T02:35:29;974.83;;;1.92;100
75089;BME280;63673;49.928;8.150;2023-03-08T02:36:31;974.83;;;1.91;100
75089;BME280;63673;49.928;8.150;2023-03-08T02:37:33;974.78;;;1.92;100
75089;BME280;63673;49.928;8.150;2023-03-08T02:38:34;974.78;;;1.92;100
75089;BME280;63673;49.928;8.150;2023-03-08T02:39:36;974.78;;;1.92;100
75089;BME280;63673;49.928;8.150;2023-03-08T02:40:38;974.81;;;1.92;100
75089;BME280;63673;49.928;8.150;2023-03-08T02:41:39;974.72;;;1.91;100
75089;BME280;63673;49.928;8.150;2023-03-08T02:42:41;974.8;;;1.92;100
75089;BME280;63673;49.928;8.150;2023-03-08T02:43:43;974.78;;;1.91;100
75089;BME280;63673;49.928;8.150;2023-03-08T02:44:44;974.74;;;1.92;100
75089;BME280;63673;49.928;8.150;2023-03-08T02:45:46;974.72;;;1.92;100
75089;BME280;63673;49.928;8.150;2023-03-08T02:46:48;974.71;;;1.93;100
75089;BME280;63673;49.928;8.150;2023-03-08T02:47:50;974.69;;;1.92;100
75089;BME280;63673;49.928;8.150;2023-03-08T02:48:51;974.65;;;1.93;100
75089;BME280;63673;49.928;8.150;2023-03-08T02:49:53;974.62;;;1.93;100
75089;BME280;63673;49.928;8.150;2023-03-08T02:50:55;974.59;;;1.93;100
75089;BME280;63673;49.928;8.150;2023-03-08T02:51:57;974.62;;;1.94;100
75089;BME280;63673;49.928;8.150;2023-03-08T02:52:58;974.62;;;1.94;100
75089;BME280;63673;49.928;8.150;2023-03-08T02:54:00;974.64;;;1.96;100
75089;BME280;63673;49.928;8.150;2023-03-08T02:55:02;974.58;;;1.95;100
75089;BME280;63673;49.928;8.150;2023-03-08T02:56:04;974.58;;;1.95;100
75089;BME280;63673;49.928;8.150;2023-03-08T02:57:05;974.63;;;1.95;100
75089;BME280;63673;49.928;8.150;2023-03-08T02:58:08;974.63;;;1.96;100
75089;BME280;63673;49.928;8.150;2023-03-08T02:59:09;974.62;;;1.97;100
75089;BME280;63673;49.928;8.150;2023-03-08T03:00:12;974.58;;;1.96;100
75089;BME280;63673;49.928;8.150;2023-03-08T03:01:12;974.62;;;1.97;100
75089;BME280;63673;49.928;8.150;2023-03-08T03:02:14;974.63;;;1.98;100
75089;BME280;63673;49.928;8.150;2023-03-08T03:03:16;974.66;;;1.97;100
75089;BME280;63673;49.928;8.150;2023-03-08T03:04:17;974.66;;;1.98;100
75089;BME280;63673;49.928;8.150;2023-03-08T03:05:19;974.58;;;2;100
75089;BME280;63673;49.928;8.150;2023-03-08T03:06:21;974.51;;;1.99;100
75089;BME280;63673;49.928;8.150;2023-03-08T03:07:23;974.55;;;2.01;100
75089;BME280;63673;49.928;8.150;2023-03-08T03:08:24;974.53;;;2;100
75089;BME280;63673;49.928;8.150;2023-03-08T03:09:26;974.5;;;2.02;100
75089;BME280;63673;49.928;8.150;2023-03-08T03:10:28;974.49;;;2.01;100
75089;BME280;63673;49.928;8.150;2023-03-08T03:11:29;974.51;;;2.02;100
75089;BME280;63673;49.928;8.150;2023-03-08T03:12:31;974.51;;;2.03;100
75089;BME280;63673;49.928;8.150;2023-03-08T03:13:33;974.49;;;2.02;100
75089;BME280;63673;49.928;8.150;2023-03-08T03:14:35;974.54;;;2.05;100
75089;BME280;63673;49.928;8.150;2023-03-08T03:15:37;974.58;;;2.04;100
75089;BME280;63673;49.928;8.150;2023-03-08T03:16:38;974.57;;;2.04;100
75089;BME280;63673;49.928;8.150;2023-03-08T03:17:40;974.57;;;2.05;100
75089;BME280;63673;49.928;8.150;2023-03-08T03:18:42;974.57;;;2.04;100
75089;BME280;63673;49.928;8.150;2023-03-08T03:19:43;974.56;;;2.05;100
75089;BME280;63673;49.928;8.150;2023-03-08T03:20:45;974.61;;;2.05;100
75089;BME280;63673;49.928;8.150;2023-03-08T03:21:47;974.55;;;2.06;100
75089;BME280;63673;49.928;8.150;2023-03-08T03:22:49;974.54;;;2.06;100
75089;BME280;63673;49.928;8.150;2023-03-08T03:23:52;974.6;;;2.06;100
75089;BME280;63673;49.928;8.150;2023-03-08T03:24:52;974.52;;;2.06;100
75089;BME280;63673;49.928;8.150;2023-03-08T03:25:54;974.53;;;2.06;100
75089;BME280;63673;49.928;8.150;2023-03-08T03:26:55;974.45;;;2.06;100
75089;BME280;63673;49.928;8.150;2023-03-08T03:27:57;974.48;;;2.05;100
75089;BME280;63673;49.928;8.150;2023-03-08T03:28:59;974.54;;;2.06;100
75089;BME280;63673;49.928;8.150;2023-03-08T03:30:01;974.53;;;2.07;100
75089;BME280;63673;49.928;8.150;2023-03-08T03:31:05;974.54;;;2.07;100
75089;BME280;63673;49.928;8.150;2023-03-08T03:32:04;974.55;;;2.07;100
75089;BME280;63673;49.928;8.150;2023-03-08T03:33:06;974.54;;;2.08;100
75089;BME280;63673;49.928;8.150;2023-03-08T03:34:08;974.58;;;2.09;100
75089;BME280;63673;49.928;8.150;2023-03-08T03:35:09;974.53;;;2.1;100
75089;BME280;63673;49.928;8.150;2023-03-08T03:36:12;974.49;;;2.1;100
75089;BME280;63673;49.928;8.150;2023-03-08T03:37:13;974.48;;;2.1;100
75089;BME280;63673;49.928;8.150;2023-03-08T03:38:15;974.49;;;2.11;100
75089;BME280;63673;49.928;8.150;2023-03-08T03:39:16;974.43;;;2.13;100
75089;BME280;63673;49.928;8.150;2023-03-08T03:40:18;974.46;;;2.12;100
75089;BME280;63673;49.928;8.150;2023-03-08T03:41:20;974.5;;;2.14;100
75089;BME280;63673;49.928;8.150;2023-03-08T03:42:21;974.54;;;2.14;100
75089;BME280;63673;49.928;8.150;2023-03-08T03:43:23;974.44;;;2.16;100
75089;BME280;63673;49.928;8.150;2023-03-08T03:44:27;974.45;;;2.15;100
75089;BME280;63673;49.928;8.150;2023-03-08T03:45:27;974.47;;;2.15;100
75089;BME280;63673;49.928;8.150;2023-03-08T03:46:28;974.41;;;2.16;100
75089;BME280;63673;49.928;8.150;2023-03-08T03:47:30;974.41;;;2.16;100
75089;BME280;63673;49.928;8.150;2023-03-08T03:48:33;974.4;;;2.17;100
75089;BME280;63673;49.928;8.150;2023-03-08T03:49:34;974.38;;;2.16;100
75089;BME280;63673;49.928;8.150;2023-03-08T03:50:35;974.35;;;2.17;100
75089;BME280;63673;49.928;8.150;2023-03-08T03:51:37;974.34;;;2.17;100
75089;BME280;63673;49.928;8.150;2023-03-08T03:52:39;974.36;;;2.17;100
75089;BME280;63673;49.928;8.150;2023-03-08T03:53:41;974.36;;;2.18;100
75089;BME280;63673;49.928;8.150;2023-03-08T03:54:42;974.32;;;2.19;100
75089;BME280;63673;49.928;8.150;2023-03-08T03:55:44;974.35;;;2.2;100
75089;BME280;63673;49.928;8.150;2023-03-08T03:56:46;974.33;;;2.21;100
75089;BME280;63673;49.928;8.150;2023-03-08T03:57:47;974.36;;;2.22;100
75089;BME280;63673;49.928;8.150;2023-03-08T03:58:50;974.31;;;2.23;100
75089;BME280;63673;49.928;8.150;2023-03-08T03:59:51;974.32;;;2.23;100
75089;BME280;63673;49.928;8.150;2023-03-08T04:00:53;974.22;;;2.24;100
75089;BME280;63673;49.928;8.150;2023-03-08T04:01:54;974.23;;;2.24;100
75089;BME280;63673;49.928;8.150;2023-03-08T04:02:56;974.22;;;2.26;100
75089;BME280;63673;49.928;8.150;2023-03-08T04:03:58;974.26;;;2.25;100
75089;BME280;63673;49.928;8.150;2023-03-08T04:05:00;974.2;;;2.27;100
75089;BME280;63673;49.928;8.150;2023-03-08T04:06:05;974.23;;;2.28;100
75089;BME280;63673;49.928;8.150;2023-03-08T04:07:03;974.25;;;2.29;100
75089;BME280;63673;49.928;8.150;2023-03-08T04:08:05;974.26;;;2.29;100
75089;BME280;63673;49.928;8.150;2023-03-08T04:09:07;974.2;;;2.3;100
75089;BME280;63673;49.928;8.150;2023-03-08T04:10:09;974.24;;;2.32;100
75089;BME280;63673;49.928;8.150;2023-03-08T04:11:11;974.19;;;2.32;100
75089;BME280;63673;49.928;8.150;2023-03-08T04:12:12;974.23;;;2.33;100
75089;BME280;63673;49.928;8.150;2023-03-08T04:13:13;974.25;;;2.33;100
75089;BME280;63673;49.928;8.150;2023-03-08T04:14:15;974.26;;;2.34;100
75089;BME280;63673;49.928;8.150;2023-03-08T04:15:17;974.29;;;2.36;100
75089;BME280;63673;49.928;8.150;2023-03-08T04:16:19;974.27;;;2.36;100
75089;BME280;63673;49.928;8.150;2023-03-08T04:17:20;974.19;;;2.36;100
75089;BME280;63673;49.928;8.150;2023-03-08T04:18:22;974.21;;;2.37;100
75089;BME280;63673;49.928;8.150;2023-03-08T04:19:24;974.25;;;2.37;100
75089;BME280;63673;49.928;8.150;2023-03-08T04:20:26;974.27;;;2.37;100
75089;BME280;63673;49.928;8.150;2023-03-08T04:21:28;974.24;;;2.37;100
75089;BME280;63673;49.928;8.150;2023-03-08T04:22:29;974.23;;;2.38;100
75089;BME280;63673;49.928;8.150;2023-03-08T04:23:31;974.19;;;2.38;100
75089;BME280;63673;49.928;8.150;2023-03-08T04:24:33;974.15;;;2.38;100
75089;BME280;63673;49.928;8.150;2023-03-08T04:25:34;974.1;;;2.38;100
75089;BME280;63673;49.928;8.150;2023-03-08T04:26:36;974.12;;;2.37;100
75089;BME280;63673;49.928;8.150;2023-03-08T04:27:38;974.13;;;2.37;100
75089;BME280;63673;49.928;8.150;2023-03-08T04:28:40;974.09;;;2.37;100
75089;BME280;63673;49.928;8.150;2023-03-08T04:29:41;974.08;;;2.37;100
75089;BME280;63673;49.928;8.150;2023-03-08T04:30:43;974.08;;;2.36;100
75089;BME280;63673;49.928;8.150;2023-03-08T04:31:45;974.07;;;2.36;100
75089;BME280;63673;49.928;8.150;2023-03-08T04:32:46;974.02;;;2.35;100
75089;BME280;63673;49.928;8.150;2023-03-08T04:33:49;974.06;;;2.35;100
75089;BME280;63673;49.928;8.150;2023-03-08T04:34:50;974.04;;;2.35;100
75089;BME280;63673;49.928;8.150;2023-03-08T04:35:52;974.11;;;2.34;100
75089;BME280;63673;49.928;8.150;2023-03-08T04:36:53;974.04;;;2.35;100
75089;BME280;63673;49.928;8.150;2023-03-08T04:37:55;974.13;;;2.34;100
75089;BME280;63673;49.928;8.150;2023-03-08T04:38:57;974.17;;;2.34;100
75089;BME280;63673;49.928;8.150;2023-03-08T04:39:59;974.16;;;2.34;100
75089;BME280;63673;49.928;8.150;2023-03-08T04:41:01;974.14;;;2.34;100
75089;BME280;63673;49.928;8.150;2023-03-08T04:42:02;974.13;;;2.34;100
75089;BME280;63673;49.928;8.150;2023-03-08T04:43:04;974.1;;;2.34;100
75089;BME280;63673;49.928;8.150;2023-03-08T04:44:06;974.14;;;2.33;100
75089;BME280;63673;49.928;8.150;2023-03-08T04:45:07;974.07;;;2.32;100
75089;BME280;63673;49.928;8.150;2023-03-08T04:46:09;974.09;;;2.32;100
75089;BME280;63673;49.928;8.150;2023-03-08T04:47:11;974.08;;;2.32;100
75089;BME280;63673;49.928;8.150;2023-03-08T04:48:12;974;;;2.31;100
75089;BME280;63673;49.928;8.150;2023-03-08T04:49:14;974.03;;;2.29;100
75089;BME280;63673;49.928;8.150;2023-03-08T04:50:16;973.99;;;2.29;100
75089;BME280;63673;49.928;8.150;2023-03-08T04:51:18;974.02;;;2.29;100
75089;BME280;63673;49.928;8.150;2023-03-08T04:52:19;974.05;;;2.28;100
75089;BME280;63673;49.928;8.150;2023-03-08T04:53:21;974.05;;;2.28;100
75089;BME280;63673;49.928;8.150;2023-03-08T04:54:23;974.06;;;2.28;100
75089;BME280;63673;49.928;8.150;2023-03-08T04:55:25;974.02;;;2.27;100
75089;BME280;63673;49.928;8.150;2023-03-08T04:56:26;973.97;;;2.26;100
75089;BME280;63673;49.928;8.150;2023-03-08T04:57:28;974.03;;;2.26;100
75089;BME280;63673;49.928;8.150;2023-03-08T04:58:30;974.03;;;2.24;100
75089;BME280;63673;49.928;8.150;2023-03-08T04:59:32;974.03;;;2.23;100
75089;BME280;63673;49.928;8.150;2023-03-08T05:00:33;974.01;;;2.24;100
75089;BME280;63673;49.928;8.150;2023-03-08T05:01:35;974;;;2.24;100
75089;BME280;63673;49.928;8.150;2023-03-08T05:02:37;973.95;;;2.23;100
75089;BME280;63673;49.928;8.150;2023-03-08T05:03:39;973.93;;;2.22;100
75089;BME280;63673;49.928;8.150;2023-03-08T05:04:40;973.86;;;2.22;100
75089;BME280;63673;49.928;8.150;2023-03-08T05:05:44;973.86;;;2.21;100
75089;BME280;63673;49.928;8.150;2023-03-08T05:06:44;973.86;;;2.21;100
75089;BME280;63673;49.928;8.150;2023-03-08T05:07:45;973.81;;;2.21;100
75089;BME280;63673;49.928;8.150;2023-03-08T05:08:47;973.78;;;2.21;100
75089;BME280;63673;49.928;8.150;2023-03-08T05:09:49;973.72;;;2.2;100
75089;BME280;63673;49.928;8.150;2023-03-08T05:10:53;973.84;;;2.2;100
75089;BME280;63673;49.928;8.150;2023-03-08T05:11:52;973.81;;;2.2;100
75089;BME280;63673;49.928;8.150;2023-03-08T05:12:54;973.72;;;2.19;100
75089;BME280;63673;49.928;8.150;2023-03-08T05:13:57;973.72;;;2.2;100
75089;BME280;63673;49.928;8.150;2023-03-08T05:14:58;973.7;;;2.19;100
75089;BME280;63673;49.928;8.150;2023-03-08T05:16:00;973.68;;;2.19;100
75089;BME280;63673;49.928;8.150;2023-03-08T05:17:01;973.68;;;2.18;100
75089;BME280;63673;49.928;8.150;2023-03-08T05:18:03;973.66;;;2.18;100
75089;BME280;63673;49.928;8.150;2023-03-08T05:19:04;973.61;;;2.18;100
75089;BME280;63673;49.928;8.150;2023-03-08T05:20:06;973.57;;;2.18;100
75089;BME280;63673;49.928;8.150;2023-03-08T05:21:09;973.57;;;2.17;100
75089;BME280;63673;49.928;8.150;2023-03-08T05:22:10;973.56;;;2.16;100
75089;BME280;63673;49.928;8.150;2023-03-08T05:23:11;973.55;;;2.16;100
75089;BME280;63673;49.928;8.150;2023-03-08T05:24:13;973.56;;;2.15;100
75089;BME280;63673;49.928;8.150;2023-03-08T05:25:15;973.57;;;2.16;100
75089;BME280;63673;49.928;8.150;2023-03-08T05:26:17;973.57;;;2.15;100
75089;BME280;63673;49.928;8.150;2023-03-08T05:27:18;973.59;;;2.15;100
75089;BME280;63673;49.928;8.150;2023-03-08T05:28:20;973.56;;;2.15;100
75089;BME280;63673;49.928;8.150;2023-03-08T05:29:22;973.54;;;2.15;100
75089;BME280;63673;49.928;8.150;2023-03-08T05:30:24;973.52;;;2.14;100
75089;BME280;63673;49.928;8.150;2023-03-08T05:31:25;973.49;;;2.13;100
75089;BME280;63673;49.928;8.150;2023-03-08T05:32:27;973.47;;;2.14;100
75089;BME280;63673;49.928;8.150;2023-03-08T05:33:29;973.5;;;2.12;100
75089;BME280;63673;49.928;8.150;2023-03-08T05:34:30;973.44;;;2.12;100
75089;BME280;63673;49.928;8.150;2023-03-08T05:35:32;973.45;;;2.11;100
75089;BME280;63673;49.928;8.150;2023-03-08T05:36:34;973.41;;;2.11;100
75089;BME280;63673;49.928;8.150;2023-03-08T05:37:36;973.39;;;2.11;100
75089;BME280;63673;49.928;8.150;2023-03-08T05:38:37;973.37;;;2.09;100
75089;BME280;63673;49.928;8.150;2023-03-08T05:39:39;973.37;;;2.1;100
75089;BME280;63673;49.928;8.150;2023-03-08T05:40:41;973.3;;;2.09;100
75089;BME280;63673;49.928;8.150;2023-03-08T05:41:43;973.32;;;2.09;100
75089;BME280;63673;49.928;8.150;2023-03-08T05:42:44;973.31;;;2.08;100
75089;BME280;63673;49.928;8.150;2023-03-08T05:43:46;973.28;;;2.07;100
75089;BME280;63673;49.928;8.150;2023-03-08T05:44:48;973.29;;;2.07;100
75089;BME280;63673;49.928;8.150;2023-03-08T05:45:53;973.24;;;2.06;100
75089;BME280;63673;49.928;8.150;2023-03-08T05:46:51;973.3;;;2.06;100
75089;BME280;63673;49.928;8.150;2023-03-08T05:47:53;973.26;;;2.06;100
75089;BME280;63673;49.928;8.150;2023-03-08T05:48:55;973.21;;;2.05;100
75089;BME280;63673;49.928;8.150;2023-03-08T05:49:56;973.16;;;2.05;100
75089;BME280;63673;49.928;8.150;2023-03-08T05:50:58;973.12;;;2.04;100